sensor_id;sensor_type;location;lat;lon;timestamp;temperature;humidity
5556;DHT22;2801;50.972;7.856;2023-05-17T00:00:39;5.30;99.90
5556;DHT22;2801;50.972;7.856;2023-05-17T00:03:06;5.30;99.90
5556;DHT22;2801;50.972;7.856;2023-05-17T00:05:33;5.30;99.90
5556;DHT22;2801;50.972;7.856;2023-05-17T00:08:00;5.30;99.90
5556;DHT22;2801;50.972;7.856;2023-05-17T00:10:27;5.30;99.90
5556;DHT22;2801;50.972;7.856;2023-05-17T00:12:54;5.30;99.90
5556;DHT22;2801;50.972;7.856;2023-05-17T00:15:21;5.40;99.90
5556;DHT22;2801;50.972;7.856;2023-05-17T00:17:48;5.50;99.90
5556;DHT22;2801;50.972;7.856;2023-05-17T00:20:15;5.50;99.90
5556;DHT22;2801;50.972;7.856;2023-05-17T00:22:42;5.50;99.90
5556;DHT22;2801;50.972;7.856;2023-05-17T00:25:11;5.50;99.90
5556;DHT22;2801;50.972;7.856;2023-05-17T00:27:38;5.50;99.90
5556;DHT22;2801;50.972;7.856;2023-05-17T00:30:06;5.50;99.90
5556;DHT22;2801;50.972;7.856;2023-05-17T00:32:33;5.40;99.90
5556;DHT22;2801;50.972;7.856;2023-05-17T00:35:00;5.20;99.90
5556;DHT22;2801;50.972;7.856;2023-05-17T00:37:27;5.20;99.90
5556;DHT22;2801;50.972;7.856;2023-05-17T00:39:54;5.10;99.90
5556;DHT22;2801;50.972;7.856;2023-05-17T00:42:21;5.10;99.90
5556;DHT22;2801;50.972;7.856;2023-05-17T00:44:48;5.00;99.90
5556;DHT22;2801;50.972;7.856;2023-05-17T00:47:15;4.90;99.90
5556;DHT22;2801;50.972;7.856;2023-05-17T00:49:42;4.80;99.90
5556;DHT22;2801;50.972;7.856;2023-05-17T00:52:11;4.80;99.90
5556;DHT22;2801;50.972;7.856;2023-05-17T00:54:38;4.90;99.90
5556;DHT22;2801;50.972;7.856;2023-05-17T00:57:06;4.90;99.90
5556;DHT22;2801;50.972;7.856;2023-05-17T00:59:34;4.80;99.90
5556;DHT22;2801;50.972;7.856;2023-05-17T01:02:03;4.80;99.90
5556;DHT22;2801;50.972;7.856;2023-05-17T01:04:30;4.80;99.90
5556;DHT22;2801;50.972;7.856;2023-05-17T01:06:58;5.00;99.90
5556;DHT22;2801;50.972;7.856;2023-05-17T01:09:25;4.80;99.90
5556;DHT22;2801;50.972;7.856;2023-05-17T01:14:44;4.60;99.90
5556;DHT22;2801;50.972;7.856;2023-05-17T01:17:38;4.60;99.90
5556;DHT22;2801;50.972;7.856;2023-05-17T01:20:27;4.70;99.90
5556;DHT22;2801;50.972;7.856;2023-05-17T01:26:06;5.00;99.90
5556;DHT22;2801;50.972;7.856;2023-05-17T01:28:40;5.10;99.90
5556;DHT22;2801;50.972;7.856;2023-05-17T01:31:10;5.20;99.90
5556;DHT22;2801;50.972;7.856;2023-05-17T01:33:38;5.30;99.90
5556;DHT22;2801;50.972;7.856;2023-05-17T01:36:06;5.30;99.90
5556;DHT22;2801;50.972;7.856;2023-05-17T01:38:33;5.40;99.90
5556;DHT22;2801;50.972;7.856;2023-05-17T01:41:28;5.50;99.90
5556;DHT22;2801;50.972;7.856;2023-05-17T01:47:12;5.70;99.90
5556;DHT22;2801;50.972;7.856;2023-05-17T01:49:47;5.70;99.90
5556;DHT22;2801;50.972;7.856;2023-05-17T01:53:09;5.80;99.90
5556;DHT22;2801;50.972;7.856;2023-05-17T01:55:42;5.90;99.90
5556;DHT22;2801;50.972;7.856;2023-05-17T01:58:20;6.00;99.90
5556;DHT22;2801;50.972;7.856;2023-05-17T02:00:53;6.00;99.90
5556;DHT22;2801;50.972;7.856;2023-05-17T02:03:21;6.00;99.90
5556;DHT22;2801;50.972;7.856;2023-05-17T02:05:49;6.10;99.90
5556;DHT22;2801;50.972;7.856;2023-05-17T02:08:16;6.30;99.90
5556;DHT22;2801;50.972;7.856;2023-05-17T02:10:43;6.20;99.90
5556;DHT22;2801;50.972;7.856;2023-05-17T02:13:10;6.30;99.90
5556;DHT22;2801;50.972;7.856;2023-05-17T02:15:38;6.40;99.90
5556;DHT22;2801;50.972;7.856;2023-05-17T02:18:05;6.40;99.90
5556;DHT22;2801;50.972;7.856;2023-05-17T02:20:32;6.50;99.90
5556;DHT22;2801;50.972;7.856;2023-05-17T02:22:59;6.70;99.90
5556;DHT22;2801;50.972;7.856;2023-05-17T02:25:26;6.60;99.90
5556;DHT22;2801;50.972;7.856;2023-05-17T02:27:53;6.60;99.90
5556;DHT22;2801;50.972;7.856;2023-05-17T02:30:21;6.60;99.90
5556;DHT22;2801;50.972;7.856;2023-05-17T02:32:48;6.70;99.90
5556;DHT22;2801;50.972;7.856;2023-05-17T02:35:17;6.70;99.90
5556;DHT22;2801;50.972;7.856;2023-05-17T02:37:44;6.80;99.90
5556;DHT22;2801;50.972;7.856;2023-05-17T02:40:11;6.80;99.90
5556;DHT22;2801;50.972;7.856;2023-05-17T02:42:39;6.90;99.90
5556;DHT22;2801;50.972;7.856;2023-05-17T02:45:06;6.90;99.90
5556;DHT22;2801;50.972;7.856;2023-05-17T02:47:33;6.90;99.90
5556;DHT22;2801;50.972;7.856;2023-05-17T02:50:01;7.10;99.90
5556;DHT22;2801;50.972;7.856;2023-05-17T02:52:28;7.00;99.90
5556;DHT22;2801;50.972;7.856;2023-05-17T02:54:54;7.10;99.90
5556;DHT22;2801;50.972;7.856;2023-05-17T02:57:21;7.10;99.90
5556;DHT22;2801;50.972;7.856;2023-05-17T02:59:49;7.10;99.90
5556;DHT22;2801;50.972;7.856;2023-05-17T03:02:16;7.20;99.90
5556;DHT22;2801;50.972;7.856;2023-05-17T03:04:43;7.20;99.90
5556;DHT22;2801;50.972;7.856;2023-05-17T03:07:10;7.30;99.90
5556;DHT22;2801;50.972;7.856;2023-05-17T03:09:37;7.20;99.90
5556;DHT22;2801;50.972;7.856;2023-05-17T03:12:04;7.20;99.90
5556;DHT22;2801;50.972;7.856;2023-05-17T03:14:32;7.20;99.90
5556;DHT22;2801;50.972;7.856;2023-05-17T03:16:58;7.10;99.90
5556;DHT22;2801;50.972;7.856;2023-05-17T03:19:25;7.10;99.90
5556;DHT22;2801;50.972;7.856;2023-05-17T03:21:53;6.90;99.90
5556;DHT22;2801;50.972;7.856;2023-05-17T03:24:20;6.90;99.90
5556;DHT22;2801;50.972;7.856;2023-05-17T03:26:47;6.80;99.90
5556;DHT22;2801;50.972;7.856;2023-05-17T03:29:14;6.80;99.90
5556;DHT22;2801;50.972;7.856;2023-05-17T03:31:41;6.60;99.90
5556;DHT22;2801;50.972;7.856;2023-05-17T03:34:08;6.50;99.90
5556;DHT22;2801;50.972;7.856;2023-05-17T03:36:36;6.30;99.90
5556;DHT22;2801;50.972;7.856;2023-05-17T03:39:04;6.20;99.90
5556;DHT22;2801;50.972;7.856;2023-05-17T03:41:31;6.30;99.90
5556;DHT22;2801;50.972;7.856;2023-05-17T03:43:58;6.20;99.90
5556;DHT22;2801;50.972;7.856;2023-05-17T03:46:25;6.30;99.90
5556;DHT22;2801;50.972;7.856;2023-05-17T03:48:52;6.40;99.90
5556;DHT22;2801;50.972;7.856;2023-05-17T03:51:19;6.50;99.90
5556;DHT22;2801;50.972;7.856;2023-05-17T03:53:46;6.60;99.90
5556;DHT22;2801;50.972;7.856;2023-05-17T03:56:13;6.70;99.90
5556;DHT22;2801;50.972;7.856;2023-05-17T03:58:41;6.80;99.90
5556;DHT22;2801;50.972;7.856;2023-05-17T04:01:08;6.90;99.90
5556;DHT22;2801;50.972;7.856;2023-05-17T04:03:35;7.00;99.90
5556;DHT22;2801;50.972;7.856;2023-05-17T04:06:04;7.10;99.90
5556;DHT22;2801;50.972;7.856;2023-05-17T04:08:34;7.20;99.90
5556;DHT22;2801;50.972;7.856;2023-05-17T04:11:05;7.20;99.90
5556;DHT22;2801;50.972;7.856;2023-05-17T04:13:41;7.30;99.90
5556;DHT22;2801;50.972;7.856;2023-05-17T04:16:09;7.30;99.90
5556;DHT22;2801;50.972;7.856;2023-05-17T04:18:37;7.30;99.90
5556;DHT22;2801;50.972;7.856;2023-05-17T04:21:05;7.30;99.90
5556;DHT22;2801;50.972;7.856;2023-05-17T04:23:33;7.40;99.90
5556;DHT22;2801;50.972;7.856;2023-05-17T04:26:01;7.40;99.90
5556;DHT22;2801;50.972;7.856;2023-05-17T04:28:29;7.50;99.90
5556;DHT22;2801;50.972;7.856;2023-05-17T04:30:56;7.50;99.90
5556;DHT22;2801;50.972;7.856;2023-05-17T04:33:23;7.80;99.90
5556;DHT22;2801;50.972;7.856;2023-05-17T04:35:53;7.60;99.90
5556;DHT22;2801;50.972;7.856;2023-05-17T04:38:20;7.70;99.90
5556;DHT22;2801;50.972;7.856;2023-05-17T04:40:48;7.80;99.90
5556;DHT22;2801;50.972;7.856;2023-05-17T04:43:15;8.00;99.90
5556;DHT22;2801;50.972;7.856;2023-05-17T04:45:42;8.00;99.90
5556;DHT22;2801;50.972;7.856;2023-05-17T04:48:09;7.90;99.90
5556;DHT22;2801;50.972;7.856;2023-05-17T04:50:37;7.90;99.90
5556;DHT22;2801;50.972;7.856;2023-05-17T04:53:03;8.00;99.90
5556;DHT22;2801;50.972;7.856;2023-05-17T04:55:30;8.00;99.90
5556;DHT22;2801;50.972;7.856;2023-05-17T04:57:57;8.00;99.90
5556;DHT22;2801;50.972;7.856;2023-05-17T05:00:24;8.10;99.90
5556;DHT22;2801;50.972;7.856;2023-05-17T05:02:51;8.20;99.90
5556;DHT22;2801;50.972;7.856;2023-05-17T05:05:18;8.50;99.90
5556;DHT22;2801;50.972;7.856;2023-05-17T05:07:46;9.00;99.90
5556;DHT22;2801;50.972;7.856;2023-05-17T05:10:13;9.50;99.90
5556;DHT22;2801;50.972;7.856;2023-05-17T05:12:40;9.80;99.90
5556;DHT22;2801;50.972;7.856;2023-05-17T05:15:07;9.90;99.90
5556;DHT22;2801;50.972;7.856;2023-05-17T05:17:34;10.00;99.90
5556;DHT22;2801;50.972;7.856;2023-05-17T05:20:02;9.90;99.90
5556;DHT22;2801;50.972;7.856;2023-05-17T05:22:29;9.70;99.90
5556;DHT22;2801;50.972;7.856;2023-05-17T05:24:56;9.60;99.90
5556;DHT22;2801;50.972;7.856;2023-05-17T05:27:23;9.50;99.90
5556;DHT22;2801;50.972;7.856;2023-05-17T05:29:50;9.50;99.90
5556;DHT22;2801;50.972;7.856;2023-05-17T05:32:17;9.50;99.90
5556;DHT22;2801;50.972;7.856;2023-05-17T05:34:44;9.50;99.90
5556;DHT22;2801;50.972;7.856;2023-05-17T05:37:11;9.40;99.90
5556;DHT22;2801;50.972;7.856;2023-05-17T05:39:38;9.30;99.90
5556;DHT22;2801;50.972;7.856;2023-05-17T05:42:05;9.20;99.90
5556;DHT22;2801;50.972;7.856;2023-05-17T05:44:32;9.10;99.90
5556;DHT22;2801;50.972;7.856;2023-05-17T05:46:59;9.10;99.90
5556;DHT22;2801;50.972;7.856;2023-05-17T05:49:26;9.20;99.90
5556;DHT22;2801;50.972;7.856;2023-05-17T05:51:53;8.90;99.90
5556;DHT22;2801;50.972;7.856;2023-05-17T05:54:20;8.90;99.90
5556;DHT22;2801;50.972;7.856;2023-05-17T05:56:47;8.90;99.90
5556;DHT22;2801;50.972;7.856;2023-05-17T05:59:14;8.90;99.90
5556;DHT22;2801;50.972;7.856;2023-05-17T06:01:41;9.00;99.90
5556;DHT22;2801;50.972;7.856;2023-05-17T06:04:09;8.90;99.90
5556;DHT22;2801;50.972;7.856;2023-05-17T06:06:36;9.00;99.90
5556;DHT22;2801;50.972;7.856;2023-05-17T06:09:03;9.20;99.90
5556;DHT22;2801;50.972;7.856;2023-05-17T06:11:34;9.30;99.90
5556;DHT22;2801;50.972;7.856;2023-05-17T06:14:00;9.20;99.90
5556;DHT22;2801;50.972;7.856;2023-05-17T06:16:27;9.20;99.90
5556;DHT22;2801;50.972;7.856;2023-05-17T06:18:54;9.20;99.90
5556;DHT22;2801;50.972;7.856;2023-05-17T06:21:22;9.30;99.90
5556;DHT22;2801;50.972;7.856;2023-05-17T06:23:49;9.70;99.90
5556;DHT22;2801;50.972;7.856;2023-05-17T06:26:16;10.00;99.90
5556;DHT22;2801;50.972;7.856;2023-05-17T06:28:43;10.30;99.90
5556;DHT22;2801;50.972;7.856;2023-05-17T06:31:10;10.80;99.90
5556;DHT22;2801;50.972;7.856;2023-05-17T06:33:37;11.80;99.90
5556;DHT22;2801;50.972;7.856;2023-05-17T06:36:05;12.40;99.90
5556;DHT22;2801;50.972;7.856;2023-05-17T06:38:32;12.60;99.90
5556;DHT22;2801;50.972;7.856;2023-05-17T06:40:59;12.30;99.90
5556;DHT22;2801;50.972;7.856;2023-05-17T06:43:26;12.10;99.90
5556;DHT22;2801;50.972;7.856;2023-05-17T06:45:53;11.90;99.90
5556;DHT22;2801;50.972;7.856;2023-05-17T06:48:20;11.50;99.90
5556;DHT22;2801;50.972;7.856;2023-05-17T06:50:47;11.20;99.90
5556;DHT22;2801;50.972;7.856;2023-05-17T06:53:14;11.40;99.90
5556;DHT22;2801;50.972;7.856;2023-05-17T06:55:41;11.80;99.90
5556;DHT22;2801;50.972;7.856;2023-05-17T06:58:08;12.10;99.90
5556;DHT22;2801;50.972;7.856;2023-05-17T07:00:38;12.40;99.90
5556;DHT22;2801;50.972;7.856;2023-05-17T07:03:05;12.90;99.30
5556;DHT22;2801;50.972;7.856;2023-05-17T07:05:32;13.20;98.40
5556;DHT22;2801;50.972;7.856;2023-05-17T07:08:00;13.60;97.70
5556;DHT22;2801;50.972;7.856;2023-05-17T07:10:27;13.60;97.30
5556;DHT22;2801;50.972;7.856;2023-05-17T07:12:54;13.70;96.60
5556;DHT22;2801;50.972;7.856;2023-05-17T07:15:21;13.60;96.40
5556;DHT22;2801;50.972;7.856;2023-05-17T07:17:48;13.60;95.70
5556;DHT22;2801;50.972;7.856;2023-05-17T07:20:15;13.60;96.00
5556;DHT22;2801;50.972;7.856;2023-05-17T07:22:42;13.50;94.80
5556;DHT22;2801;50.972;7.856;2023-05-17T07:25:09;13.40;96.10
5556;DHT22;2801;50.972;7.856;2023-05-17T07:27:36;13.30;95.00
5556;DHT22;2801;50.972;7.856;2023-05-17T07:30:04;13.60;96.10
5556;DHT22;2801;50.972;7.856;2023-05-17T07:32:32;14.90;94.20
5556;DHT22;2801;50.972;7.856;2023-05-17T07:34:59;15.80;92.90
5556;DHT22;2801;50.972;7.856;2023-05-17T07:37:28;15.70;91.00
5556;DHT22;2801;50.972;7.856;2023-05-17T07:39:55;15.40;90.80
5556;DHT22;2801;50.972;7.856;2023-05-17T07:42:22;15.20;91.30
5556;DHT22;2801;50.972;7.856;2023-05-17T07:44:51;15.70;91.60
5556;DHT22;2801;50.972;7.856;2023-05-17T07:47:18;16.00;86.50
5556;DHT22;2801;50.972;7.856;2023-05-17T07:49:46;15.70;82.50
5556;DHT22;2801;50.972;7.856;2023-05-17T07:52:13;15.90;87.20
5556;DHT22;2801;50.972;7.856;2023-05-17T07:54:40;16.70;86.70
5556;DHT22;2801;50.972;7.856;2023-05-17T07:57:07;18.20;86.50
5556;DHT22;2801;50.972;7.856;2023-05-17T07:59:34;19.50;73.10
5556;DHT22;2801;50.972;7.856;2023-05-17T08:02:01;18.70;72.90
5556;DHT22;2801;50.972;7.856;2023-05-17T08:04:28;17.50;75.70
5556;DHT22;2801;50.972;7.856;2023-05-17T08:06:55;16.40;77.60
5556;DHT22;2801;50.972;7.856;2023-05-17T08:09:22;15.40;80.00
5556;DHT22;2801;50.972;7.856;2023-05-17T08:11:49;14.80;82.10
5556;DHT22;2801;50.972;7.856;2023-05-17T08:14:17;14.70;82.10
5556;DHT22;2801;50.972;7.856;2023-05-17T08:16:45;15.50;82.10
5556;DHT22;2801;50.972;7.856;2023-05-17T08:19:13;15.80;81.70
5556;DHT22;2801;50.972;7.856;2023-05-17T08:21:42;15.70;81.70
5556;DHT22;2801;50.972;7.856;2023-05-17T08:24:09;15.40;81.80
5556;DHT22;2801;50.972;7.856;2023-05-17T08:26:37;15.40;80.70
5556;DHT22;2801;50.972;7.856;2023-05-17T08:29:04;15.60;82.60
5556;DHT22;2801;50.972;7.856;2023-05-17T08:31:31;16.90;76.50
5556;DHT22;2801;50.972;7.856;2023-05-17T08:33:59;17.90;74.80
5556;DHT22;2801;50.972;7.856;2023-05-17T08:36:26;18.80;70.10
5556;DHT22;2801;50.972;7.856;2023-05-17T08:38:54;19.50;68.00
5556;DHT22;2801;50.972;7.856;2023-05-17T08:41:21;19.60;64.70
5556;DHT22;2801;50.972;7.856;2023-05-17T08:43:48;19.80;64.80
5556;DHT22;2801;50.972;7.856;2023-05-17T08:46:18;20.50;65.70
5556;DHT22;2801;50.972;7.856;2023-05-17T08:48:49;20.40;63.00
5556;DHT22;2801;50.972;7.856;2023-05-17T08:51:18;20.60;65.20
5556;DHT22;2801;50.972;7.856;2023-05-17T08:53:46;20.20;63.60
5556;DHT22;2801;50.972;7.856;2023-05-17T08:56:16;19.70;65.70
5556;DHT22;2801;50.972;7.856;2023-05-17T08:58:52;18.90;64.80
5556;DHT22;2801;50.972;7.856;2023-05-17T09:01:23;18.20;63.80
5556;DHT22;2801;50.972;7.856;2023-05-17T09:03:53;18.40;66.70
5556;DHT22;2801;50.972;7.856;2023-05-17T09:06:22;18.70;62.50
5556;DHT22;2801;50.972;7.856;2023-05-17T09:08:50;18.20;64.70
5556;DHT22;2801;50.972;7.856;2023-05-17T09:11:30;17.50;67.00
5556;DHT22;2801;50.972;7.856;2023-05-17T09:14:04;18.00;68.00
5556;DHT22;2801;50.972;7.856;2023-05-17T09:16:34;18.50;59.70
5556;DHT22;2801;50.972;7.856;2023-05-17T09:19:04;18.50;64.80
5556;DHT22;2801;50.972;7.856;2023-05-17T09:21:35;18.10;65.30
5556;DHT22;2801;50.972;7.856;2023-05-17T09:24:02;17.00;65.30
5556;DHT22;2801;50.972;7.856;2023-05-17T09:26:42;16.10;67.90
5556;DHT22;2801;50.972;7.856;2023-05-17T09:29:14;15.30;69.50
5556;DHT22;2801;50.972;7.856;2023-05-17T09:31:43;14.90;70.10
5556;DHT22;2801;50.972;7.856;2023-05-17T09:34:10;14.60;72.30
5556;DHT22;2801;50.972;7.856;2023-05-17T09:36:40;14.70;72.70
5556;DHT22;2801;50.972;7.856;2023-05-17T09:39:09;15.40;72.30
5556;DHT22;2801;50.972;7.856;2023-05-17T09:41:44;16.40;70.40
5556;DHT22;2801;50.972;7.856;2023-05-17T09:44:16;17.60;66.50
5556;DHT22;2801;50.972;7.856;2023-05-17T09:46:45;17.80;67.10
5556;DHT22;2801;50.972;7.856;2023-05-17T09:49:16;18.40;61.40
5556;DHT22;2801;50.972;7.856;2023-05-17T09:51:46;19.70;64.90
5556;DHT22;2801;50.972;7.856;2023-05-17T09:54:14;20.50;62.00
5556;DHT22;2801;50.972;7.856;2023-05-17T09:56:43;19.60;57.90
5556;DHT22;2801;50.972;7.856;2023-05-17T09:59:17;18.80;59.30
5556;DHT22;2801;50.972;7.856;2023-05-17T10:01:54;19.10;59.00
5556;DHT22;2801;50.972;7.856;2023-05-17T10:04:24;19.70;58.80
5556;DHT22;2801;50.972;7.856;2023-05-17T10:07:00;19.60;57.10
5556;DHT22;2801;50.972;7.856;2023-05-17T10:09:27;19.50;58.60
5556;DHT22;2801;50.972;7.856;2023-05-17T10:12:00;20.40;58.80
5556;DHT22;2801;50.972;7.856;2023-05-17T10:14:30;21.20;56.60
5556;DHT22;2801;50.972;7.856;2023-05-17T10:16:59;21.30;55.80
5556;DHT22;2801;50.972;7.856;2023-05-17T10:19:28;21.50;53.80
5556;DHT22;2801;50.972;7.856;2023-05-17T10:21:57;21.00;53.30
5556;DHT22;2801;50.972;7.856;2023-05-17T10:24:44;20.50;56.00
5556;DHT22;2801;50.972;7.856;2023-05-17T10:27:14;20.00;58.20
5556;DHT22;2801;50.972;7.856;2023-05-17T10:29:42;19.10;59.90
5556;DHT22;2801;50.972;7.856;2023-05-17T10:32:14;18.80;60.90
5556;DHT22;2801;50.972;7.856;2023-05-17T10:34:42;18.60;59.20
5556;DHT22;2801;50.972;7.856;2023-05-17T10:37:18;18.10;61.40
5556;DHT22;2801;50.972;7.856;2023-05-17T10:39:47;17.60;62.20
5556;DHT22;2801;50.972;7.856;2023-05-17T10:42:20;17.00;62.90
5556;DHT22;2801;50.972;7.856;2023-05-17T10:44:47;16.30;64.90
5556;DHT22;2801;50.972;7.856;2023-05-17T10:47:14;16.80;66.30
5556;DHT22;2801;50.972;7.856;2023-05-17T10:49:43;17.30;63.60
5556;DHT22;2801;50.972;7.856;2023-05-17T10:52:19;17.60;61.60
5556;DHT22;2801;50.972;7.856;2023-05-17T10:54:49;17.80;59.80
5556;DHT22;2801;50.972;7.856;2023-05-17T10:57:36;17.90;61.30
5556;DHT22;2801;50.972;7.856;2023-05-17T11:00:19;18.00;58.70
5556;DHT22;2801;50.972;7.856;2023-05-17T11:03:13;18.10;60.30
5556;DHT22;2801;50.972;7.856;2023-05-17T11:05:44;18.40;62.00
5556;DHT22;2801;50.972;7.856;2023-05-17T11:09:07;18.30;58.80
5556;DHT22;2801;50.972;7.856;2023-05-17T11:12:03;17.60;59.90
5556;DHT22;2801;50.972;7.856;2023-05-17T11:17:23;16.40;65.40
5556;DHT22;2801;50.972;7.856;2023-05-17T11:22:27;16.10;66.80
5556;DHT22;2801;50.972;7.856;2023-05-17T11:25:07;15.90;65.30
5556;DHT22;2801;50.972;7.856;2023-05-17T11:30:23;15.70;63.40
5556;DHT22;2801;50.972;7.856;2023-05-17T11:33:00;15.70;69.00
5556;DHT22;2801;50.972;7.856;2023-05-17T11:35:33;15.80;68.40
5556;DHT22;2801;50.972;7.856;2023-05-17T11:38:21;15.90;68.50
5556;DHT22;2801;50.972;7.856;2023-05-17T11:40:54;16.00;66.90
5556;DHT22;2801;50.972;7.856;2023-05-17T11:43:24;15.90;65.90
5556;DHT22;2801;50.972;7.856;2023-05-17T11:45:55;15.90;67.30
5556;DHT22;2801;50.972;7.856;2023-05-17T11:48:25;16.00;68.60
5556;DHT22;2801;50.972;7.856;2023-05-17T11:50:54;16.00;68.20
5556;DHT22;2801;50.972;7.856;2023-05-17T11:53:24;16.00;68.10
5556;DHT22;2801;50.972;7.856;2023-05-17T11:55:52;16.00;68.40
5556;DHT22;2801;50.972;7.856;2023-05-17T11:58:24;15.90;68.80
5556;DHT22;2801;50.972;7.856;2023-05-17T12:00:56;15.90;68.70
5556;DHT22;2801;50.972;7.856;2023-05-17T12:03:28;15.80;67.00
5556;DHT22;2801;50.972;7.856;2023-05-17T12:06:10;15.90;69.80
5556;DHT22;2801;50.972;7.856;2023-05-17T12:08:45;16.00;70.20
5556;DHT22;2801;50.972;7.856;2023-05-17T12:11:16;16.00;68.90
5556;DHT22;2801;50.972;7.856;2023-05-17T12:13:44;15.90;69.30
5556;DHT22;2801;50.972;7.856;2023-05-17T12:16:15;15.90;70.90
5556;DHT22;2801;50.972;7.856;2023-05-17T12:18:47;15.90;66.70
5556;DHT22;2801;50.972;7.856;2023-05-17T12:21:17;15.80;68.40
5556;DHT22;2801;50.972;7.856;2023-05-17T12:23:49;15.70;68.30
5556;DHT22;2801;50.972;7.856;2023-05-17T12:26:18;15.80;69.50
5556;DHT22;2801;50.972;7.856;2023-05-17T12:28:56;15.90;68.60
5556;DHT22;2801;50.972;7.856;2023-05-17T12:31:37;16.00;68.80
5556;DHT22;2801;50.972;7.856;2023-05-17T12:34:06;15.90;67.70
5556;DHT22;2801;50.972;7.856;2023-05-17T12:36:40;16.00;69.40
5556;DHT22;2801;50.972;7.856;2023-05-17T12:39:09;15.80;68.00
5556;DHT22;2801;50.972;7.856;2023-05-17T12:41:38;15.80;70.20
5556;DHT22;2801;50.972;7.856;2023-05-17T12:44:09;15.90;69.30
5556;DHT22;2801;50.972;7.856;2023-05-17T12:46:41;16.10;69.60
5556;DHT22;2801;50.972;7.856;2023-05-17T12:49:09;16.40;69.30
5556;DHT22;2801;50.972;7.856;2023-05-17T12:51:44;16.40;69.20
5556;DHT22;2801;50.972;7.856;2023-05-17T12:54:25;16.50;68.70
5556;DHT22;2801;50.972;7.856;2023-05-17T12:56:54;16.50;68.00
5556;DHT22;2801;50.972;7.856;2023-05-17T12:59:21;16.50;66.90
5556;DHT22;2801;50.972;7.856;2023-05-17T13:01:55;16.40;67.30
5556;DHT22;2801;50.972;7.856;2023-05-17T13:04:31;16.50;68.70
5556;DHT22;2801;50.972;7.856;2023-05-17T13:07:01;16.60;67.90
5556;DHT22;2801;50.972;7.856;2023-05-17T13:09:31;16.70;68.60
5556;DHT22;2801;50.972;7.856;2023-05-17T13:12:01;16.60;64.00
5556;DHT22;2801;50.972;7.856;2023-05-17T13:14:45;16.30;65.90
5556;DHT22;2801;50.972;7.856;2023-05-17T13:17:25;16.40;65.90
5556;DHT22;2801;50.972;7.856;2023-05-17T13:19:59;16.40;66.10
5556;DHT22;2801;50.972;7.856;2023-05-17T13:22:26;16.50;66.80
5556;DHT22;2801;50.972;7.856;2023-05-17T13:24:53;16.60;66.40
5556;DHT22;2801;50.972;7.856;2023-05-17T13:27:33;16.60;68.20
5556;DHT22;2801;50.972;7.856;2023-05-17T13:30:53;16.60;65.80
5556;DHT22;2801;50.972;7.856;2023-05-17T13:33:20;16.30;66.50
5556;DHT22;2801;50.972;7.856;2023-05-17T13:35:47;16.30;66.00
5556;DHT22;2801;50.972;7.856;2023-05-17T13:38:14;16.20;67.70
5556;DHT22;2801;50.972;7.856;2023-05-17T13:40:41;16.20;67.10
5556;DHT22;2801;50.972;7.856;2023-05-17T13:43:08;16.20;65.90
5556;DHT22;2801;50.972;7.856;2023-05-17T13:45:35;16.30;66.50
5556;DHT22;2801;50.972;7.856;2023-05-17T13:48:02;16.40;67.40
5556;DHT22;2801;50.972;7.856;2023-05-17T13:50:30;16.60;68.20
5556;DHT22;2801;50.972;7.856;2023-05-17T13:52:57;16.50;64.50
5556;DHT22;2801;50.972;7.856;2023-05-17T13:55:24;16.40;66.40
5556;DHT22;2801;50.972;7.856;2023-05-17T13:57:51;16.10;66.10
5556;DHT22;2801;50.972;7.856;2023-05-17T14:00:19;16.20;68.80
5556;DHT22;2801;50.972;7.856;2023-05-17T14:02:46;16.20;66.30
5556;DHT22;2801;50.972;7.856;2023-05-17T14:05:13;16.10;67.70
5556;DHT22;2801;50.972;7.856;2023-05-17T14:07:40;16.30;68.90
5556;DHT22;2801;50.972;7.856;2023-05-17T14:10:09;16.60;68.90
5556;DHT22;2801;50.972;7.856;2023-05-17T14:12:38;16.40;65.40
5556;DHT22;2801;50.972;7.856;2023-05-17T14:15:07;16.70;68.50
5556;DHT22;2801;50.972;7.856;2023-05-17T14:17:36;16.80;67.60
5556;DHT22;2801;50.972;7.856;2023-05-17T14:20:03;16.70;66.70
5556;DHT22;2801;50.972;7.856;2023-05-17T14:22:31;16.40;65.80
5556;DHT22;2801;50.972;7.856;2023-05-17T14:24:58;16.40;66.10
5556;DHT22;2801;50.972;7.856;2023-05-17T14:27:25;16.30;63.90
5556;DHT22;2801;50.972;7.856;2023-05-17T14:29:52;16.50;66.40
5556;DHT22;2801;50.972;7.856;2023-05-17T14:32:19;16.70;66.60
5556;DHT22;2801;50.972;7.856;2023-05-17T14:34:46;16.60;65.20
5556;DHT22;2801;50.972;7.856;2023-05-17T14:37:13;16.60;65.80
5556;DHT22;2801;50.972;7.856;2023-05-17T14:39:40;16.60;65.80
5556;DHT22;2801;50.972;7.856;2023-05-17T14:42:15;16.60;65.50
5556;DHT22;2801;50.972;7.856;2023-05-17T14:44:42;16.60;65.40
5556;DHT22;2801;50.972;7.856;2023-05-17T14:47:09;16.60;66.00
5556;DHT22;2801;50.972;7.856;2023-05-17T14:49:36;16.70;65.30
5556;DHT22;2801;50.972;7.856;2023-05-17T14:52:03;16.70;64.60
5556;DHT22;2801;50.972;7.856;2023-05-17T14:54:30;16.70;65.70
5556;DHT22;2801;50.972;7.856;2023-05-17T14:56:58;16.70;65.80
5556;DHT22;2801;50.972;7.856;2023-05-17T14:59:26;16.70;65.30
5556;DHT22;2801;50.972;7.856;2023-05-17T15:01:53;16.80;65.50
5556;DHT22;2801;50.972;7.856;2023-05-17T15:04:21;16.80;64.90
5556;DHT22;2801;50.972;7.856;2023-05-17T15:06:48;16.90;66.40
5556;DHT22;2801;50.972;7.856;2023-05-17T15:09:16;16.90;65.70
5556;DHT22;2801;50.972;7.856;2023-05-17T15:11:44;16.80;65.00
5556;DHT22;2801;50.972;7.856;2023-05-17T15:14:11;16.60;65.30
5556;DHT22;2801;50.972;7.856;2023-05-17T15:16:38;15.90;62.30
5556;DHT22;2801;50.972;7.856;2023-05-17T15:19:05;16.10;66.50
5556;DHT22;2801;50.972;7.856;2023-05-17T15:21:33;16.30;66.70
5556;DHT22;2801;50.972;7.856;2023-05-17T15:24:00;16.40;67.30
5556;DHT22;2801;50.972;7.856;2023-05-17T15:26:28;16.20;64.40
5556;DHT22;2801;50.972;7.856;2023-05-17T15:28:55;16.20;66.50
5556;DHT22;2801;50.972;7.856;2023-05-17T15:31:22;16.10;66.20
5556;DHT22;2801;50.972;7.856;2023-05-17T15:33:50;15.80;65.70
5556;DHT22;2801;50.972;7.856;2023-05-17T15:36:17;15.00;66.10
5556;DHT22;2801;50.972;7.856;2023-05-17T15:38:44;15.10;67.10
5556;DHT22;2801;50.972;7.856;2023-05-17T15:41:13;15.10;67.20
5556;DHT22;2801;50.972;7.856;2023-05-17T15:43:42;15.30;68.10
5556;DHT22;2801;50.972;7.856;2023-05-17T15:46:09;15.50;66.20
5556;DHT22;2801;50.972;7.856;2023-05-17T15:48:37;15.60;65.30
5556;DHT22;2801;50.972;7.856;2023-05-17T15:51:05;15.80;67.90
5556;DHT22;2801;50.972;7.856;2023-05-17T15:53:33;15.90;68.20
5556;DHT22;2801;50.972;7.856;2023-05-17T15:56:00;16.00;68.50
5556;DHT22;2801;50.972;7.856;2023-05-17T15:58:28;16.20;68.40
5556;DHT22;2801;50.972;7.856;2023-05-17T16:01:02;15.70;63.80
5556;DHT22;2801;50.972;7.856;2023-05-17T16:03:30;15.70;67.80
5556;DHT22;2801;50.972;7.856;2023-05-17T16:05:58;15.60;67.40
5556;DHT22;2801;50.972;7.856;2023-05-17T16:08:25;15.60;67.70
5556;DHT22;2801;50.972;7.856;2023-05-17T16:10:52;15.70;66.40
5556;DHT22;2801;50.972;7.856;2023-05-17T16:13:19;15.70;66.70
5556;DHT22;2801;50.972;7.856;2023-05-17T16:15:46;15.90;67.20
5556;DHT22;2801;50.972;7.856;2023-05-17T16:18:13;16.00;67.50
5556;DHT22;2801;50.972;7.856;2023-05-17T16:20:41;15.60;65.70
5556;DHT22;2801;50.972;7.856;2023-05-17T16:23:09;15.70;67.50
5556;DHT22;2801;50.972;7.856;2023-05-17T16:25:36;15.50;67.50
5556;DHT22;2801;50.972;7.856;2023-05-17T16:28:03;15.60;68.40
5556;DHT22;2801;50.972;7.856;2023-05-17T16:30:30;15.60;67.30
5556;DHT22;2801;50.972;7.856;2023-05-17T16:32:57;15.50;66.20
5556;DHT22;2801;50.972;7.856;2023-05-17T16:35:24;15.40;66.20
5556;DHT22;2801;50.972;7.856;2023-05-17T16:37:51;15.40;66.00